Decoded Metar for PAWI (WAINWRIGHT in AK, USA) (IATA:AWI) | Meteo·Mobile Aviation Weather
aviador You're here:

PAWI Decoded Metar

WAINWRIGHT in AK, USA
Report Time2018-10-23 22:13:00
UTC Time2018-10-23 22:59:51
Flight Rules ifr IFR
Wind070° at 12 kt
W.Decomp.*RWY 05: 12.0 kt HW 0.6 kt RCW
W.Rank070° ranks 2
Current wind is below 070° avg. (12.6)
Visibility9999 m
Phenomena:N/A
Clouds:Overcast 009 Hf
Expected CloudBase > 400 ft AGL from Temp-Dew spread
Ceiling900 ft
Temp-5°C (ISA -20)
Dew Point-6°C (93% RH)
AAT-12.0°C
QNH1006 hPa
Density Alt-2,067 ft
Elevation89 ft
Report Wrong Elevation
Raw Report
PAWI 232213Z AUTO 07012KT 8SM OVC009 M05/M06 A2972 RMK AO2
T10501061 TSNO=

Extra information for PAWI:More info

Metar Taf Metar & Taf Last 4 Metars F.Rules Stats Wind Profile Meteogram Temp Stats Airport Information Weather charts Add Link Nearby VenuesMetar ALERT Operation Metar Decoded Social comments

AIRNAV info for PAWI